createdAt,value
2022-08-11T00:01:55.952Z,16.60
2022-08-11T00:04:24.473Z,16.60
2022-08-11T00:06:52.105Z,16.50
2022-08-11T00:09:22.047Z,16.50
2022-08-11T00:11:52.827Z,16.40
2022-08-11T00:14:37.272Z,16.40
2022-08-11T00:17:04.615Z,16.40
2022-08-11T00:20:12.648Z,16.40
2022-08-11T00:22:21.455Z,16.30
2022-08-11T00:24:53.341Z,16.20
2022-08-11T00:27:31.796Z,16.20
2022-08-11T00:29:58.524Z,16.20
2022-08-11T00:32:25.279Z,16.20
2022-08-11T00:34:52.177Z,16.20
2022-08-11T00:37:39.203Z,16.10
2022-08-11T00:40:10.195Z,16.10
2022-08-11T00:43:01.937Z,16.10
2022-08-11T00:45:43.927Z,16.10
2022-08-11T00:48:27.773Z,16.10
2022-08-11T00:51:05.680Z,16.00
2022-08-11T00:54:03.380Z,16.00
2022-08-11T00:56:54.923Z,15.90
2022-08-11T00:59:43.688Z,15.80
2022-08-11T01:02:17.916Z,15.70
2022-08-11T01:04:55.801Z,15.70
2022-08-11T01:08:01.542Z,15.70
2022-08-11T01:11:14.096Z,15.70
2022-08-11T01:13:49.624Z,15.70
2022-08-11T01:16:47.345Z,15.70
2022-08-11T01:19:31.675Z,15.60
2022-08-11T01:22:13.496Z,15.60
2022-08-11T01:25:17.542Z,15.50
2022-08-11T01:27:47.105Z,15.50
2022-08-11T01:30:32.204Z,15.50
2022-08-11T01:33:20.748Z,15.40
2022-08-11T01:36:17.896Z,15.50
2022-08-11T01:38:56.713Z,15.50
2022-08-11T01:42:13.746Z,15.50
2022-08-11T01:45:02.137Z,15.50
2022-08-11T01:47:54.419Z,15.40
2022-08-11T01:50:24.232Z,15.30
2022-08-11T01:53:12.607Z,15.30
2022-08-11T01:55:57.340Z,15.30
2022-08-11T01:58:43.671Z,15.20
2022-08-11T02:01:32.821Z,15.10
2022-08-11T02:04:19.837Z,15.10
2022-08-11T02:07:03.625Z,15.10
2022-08-11T02:10:35.311Z,15.00
2022-08-11T02:13:44.660Z,15.00
2022-08-11T02:16:39.776Z,14.90
2022-08-11T02:19:37.012Z,14.90
2022-08-11T02:22:35.907Z,14.80
2022-08-11T02:25:18.808Z,14.80
2022-08-11T02:27:53.452Z,14.70
2022-08-11T02:30:24.292Z,14.70
2022-08-11T02:33:14.692Z,14.70
2022-08-11T02:36:08.562Z,14.70
2022-08-11T02:38:49.134Z,14.60
2022-08-11T02:41:50.372Z,14.60
2022-08-11T02:44:36.698Z,14.60
2022-08-11T02:47:27.777Z,14.60
2022-08-11T02:50:09.878Z,14.60
2022-08-11T02:52:51.912Z,14.50
2022-08-11T02:55:55.774Z,14.50
2022-08-11T02:59:06.288Z,14.50
2022-08-11T03:01:41.437Z,14.40
2022-08-11T03:04:14.749Z,14.40
2022-08-11T03:07:29.112Z,14.40
2022-08-11T03:10:19.948Z,14.30
2022-08-11T03:13:10.505Z,14.30
2022-08-11T03:16:26.368Z,14.30
2022-08-11T03:19:14.200Z,14.30
2022-08-11T03:22:02.474Z,14.20
2022-08-11T03:25:01.555Z,14.20
2022-08-11T03:27:40.102Z,14.10
2022-08-11T03:30:34.263Z,14.10
2022-08-11T03:33:45.455Z,14.00
2022-08-11T03:36:33.322Z,14.00
2022-08-11T03:39:33.463Z,14.00
2022-08-11T03:42:21.867Z,13.90
2022-08-11T03:45:24.016Z,13.90
2022-08-11T03:48:11.408Z,13.90
2022-08-11T03:50:55.856Z,13.90
2022-08-11T03:53:48.499Z,13.90
2022-08-11T03:56:52.053Z,13.90
2022-08-11T03:59:51.223Z,13.90
2022-08-11T04:02:39.426Z,13.90
2022-08-11T04:05:30.164Z,14.00
2022-08-11T04:08:08.825Z,14.00
2022-08-11T04:10:49.006Z,13.90
2022-08-11T04:13:34.480Z,13.90
2022-08-11T04:16:16.713Z,13.80
2022-08-11T04:19:08.829Z,13.80
2022-08-11T04:21:35.580Z,13.80
2022-08-11T04:24:36.588Z,13.80
2022-08-11T04:27:01.869Z,13.80
2022-08-11T04:30:03.416Z,13.80
2022-08-11T04:32:56.489Z,13.70
2022-08-11T04:35:58.002Z,13.70
2022-08-11T04:38:30.950Z,13.70
2022-08-11T04:42:13.868Z,13.70
2022-08-11T04:45:04.710Z,13.70
2022-08-11T04:48:27.399Z,13.80
2022-08-11T04:51:17.780Z,14.10
2022-08-11T04:54:30.138Z,14.40
2022-08-11T04:57:27.223Z,14.70
2022-08-11T05:00:25.363Z,15.00
2022-08-11T05:03:19.388Z,15.40
2022-08-11T05:06:24.762Z,15.70
2022-08-11T05:09:09.997Z,16.10
2022-08-11T05:12:06.346Z,16.40
2022-08-11T05:15:00.150Z,16.60
2022-08-11T05:18:13.607Z,16.90
2022-08-11T05:21:09.868Z,17.30
2022-08-11T05:24:02.457Z,17.80
2022-08-11T05:26:49.139Z,18.20
2022-08-11T05:30:01.889Z,18.60
2022-08-11T05:33:02.037Z,18.90
2022-08-11T05:36:02.162Z,19.10
2022-08-11T05:38:50.951Z,19.20
2022-08-11T05:41:38.520Z,19.30
2022-08-11T05:44:24.086Z,19.50
2022-08-11T05:47:09.587Z,19.60
2022-08-11T05:49:55.095Z,19.80
2022-08-11T05:52:46.831Z,19.90
2022-08-11T05:55:32.946Z,19.90
2022-08-11T05:58:06.383Z,19.90
2022-08-11T06:00:42.844Z,20.00
2022-08-11T06:03:10.933Z,20.00
2022-08-11T06:05:44.115Z,20.10
2022-08-11T06:08:14.369Z,20.10
2022-08-11T06:10:42.524Z,20.20
2022-08-11T06:13:09.305Z,20.30
2022-08-11T06:15:45.073Z,20.40
2022-08-11T06:18:12.396Z,20.50
2022-08-11T06:20:56.426Z,20.50
2022-08-11T06:23:25.186Z,20.60
2022-08-11T06:25:52.622Z,20.70
2022-08-11T06:28:21.364Z,20.80
2022-08-11T06:30:49.018Z,20.80
2022-08-11T06:33:21.882Z,20.90
2022-08-11T06:35:48.869Z,20.90
2022-08-11T06:38:30.765Z,21.10
2022-08-11T06:41:31.699Z,21.20
2022-08-11T06:44:14.419Z,21.30
2022-08-11T06:46:42.771Z,21.40
2022-08-11T06:49:31.417Z,21.40
2022-08-11T06:52:05.213Z,21.60
2022-08-11T06:54:33.967Z,21.70
2022-08-11T06:57:29.747Z,21.80
2022-08-11T07:00:15.653Z,21.90
2022-08-11T07:03:01.062Z,21.90
2022-08-11T07:05:46.394Z,21.90
2022-08-11T07:08:56.317Z,22.00
2022-08-11T07:12:08.505Z,22.00
2022-08-11T07:14:59.950Z,22.10
2022-08-11T07:17:28.113Z,22.20
2022-08-11T07:20:15.293Z,22.20
2022-08-11T07:23:01.070Z,22.10
2022-08-11T07:26:05.992Z,22.20
2022-08-11T07:28:51.109Z,22.30
2022-08-11T07:31:22.078Z,22.40
2022-08-11T07:34:12.167Z,22.20
2022-08-11T07:36:45.497Z,22.30
2022-08-11T07:39:29.042Z,22.40
2022-08-11T07:41:57.288Z,22.50
2022-08-11T07:44:34.265Z,22.50
2022-08-11T07:47:20.169Z,22.50
2022-08-11T07:50:05.305Z,22.50
2022-08-11T07:52:34.559Z,22.50
2022-08-11T07:55:11.845Z,22.60
2022-08-11T07:58:16.612Z,22.60
2022-08-11T08:01:21.476Z,22.50
2022-08-11T08:04:07.631Z,22.50
2022-08-11T08:06:52.920Z,22.50
2022-08-11T08:09:39.680Z,22.50
2022-08-11T08:12:25.256Z,22.70
2022-08-11T08:15:10.913Z,22.80
2022-08-11T08:18:09.549Z,22.70
2022-08-11T08:20:43.287Z,22.80
2022-08-11T08:23:10.144Z,22.80
2022-08-11T08:25:41.118Z,22.90
2022-08-11T08:28:10.508Z,22.90
2022-08-11T08:30:50.751Z,22.80
2022-08-11T08:33:20.257Z,22.90
2022-08-11T08:35:54.435Z,22.90
2022-08-11T08:38:23.086Z,22.90
2022-08-11T08:40:51.211Z,22.80
2022-08-11T08:43:18.358Z,22.80
2022-08-11T08:45:45.172Z,22.90
2022-08-11T08:48:15.156Z,23.00
2022-08-11T08:51:19.511Z,23.00
2022-08-11T08:53:53.547Z,22.90
2022-08-11T08:56:25.067Z,23.00
2022-08-11T08:58:51.845Z,23.00
2022-08-11T09:01:18.665Z,23.20
2022-08-11T09:04:06.579Z,23.10
2022-08-11T09:06:32.241Z,23.20
2022-08-11T09:08:59.964Z,23.30
2022-08-11T09:11:45.014Z,23.30
2022-08-11T09:14:15.099Z,23.20
2022-08-11T09:16:42.010Z,23.30
2022-08-11T09:19:09.575Z,23.30
2022-08-11T09:21:49.113Z,23.30
2022-08-11T09:24:36.706Z,23.40
2022-08-11T09:27:08.647Z,23.40
2022-08-11T09:29:35.575Z,23.50
2022-08-11T09:32:02.333Z,23.60
2022-08-11T09:34:29.131Z,23.70
2022-08-11T09:37:28.282Z,23.70
2022-08-11T09:40:19.476Z,23.70
2022-08-11T09:43:04.701Z,23.70
2022-08-11T09:45:39.901Z,23.80
2022-08-11T09:48:07.371Z,23.90
2022-08-11T09:50:34.705Z,23.90
2022-08-11T09:53:35.835Z,24.00
2022-08-11T09:55:52.860Z,23.90
2022-08-11T09:58:33.937Z,23.90
2022-08-11T10:01:07.970Z,23.90
2022-08-11T10:03:38.328Z,24.00
2022-08-11T10:06:33.196Z,24.20
2022-08-11T10:09:03.111Z,24.20
2022-08-11T10:11:29.829Z,24.20
2022-08-11T10:14:34.063Z,24.30
2022-08-11T10:17:04.415Z,24.50
2022-08-11T10:19:31.664Z,24.40
2022-08-11T10:22:16.739Z,24.50
2022-08-11T10:25:01.961Z,24.40
2022-08-11T10:28:09.079Z,24.40
2022-08-11T10:30:33.950Z,24.40
2022-08-11T10:33:37.056Z,24.50
2022-08-11T10:36:16.273Z,24.50
2022-08-11T10:38:45.856Z,24.60
2022-08-11T10:41:31.951Z,24.70
2022-08-11T10:44:03.668Z,24.70
2022-08-11T10:46:49.684Z,24.80
2022-08-11T10:49:16.477Z,24.90
2022-08-11T10:52:01.583Z,24.90
2022-08-11T10:54:46.785Z,24.90
2022-08-11T10:57:33.615Z,24.90
2022-08-11T11:00:00.480Z,25.00
2022-08-11T11:02:30.035Z,25.10
2022-08-11T11:05:09.191Z,25.10
2022-08-11T11:07:44.348Z,25.20
2022-08-11T11:10:11.416Z,25.20
2022-08-11T11:12:59.077Z,25.20
2022-08-11T11:15:46.220Z,25.30
2022-08-11T11:18:18.231Z,25.50
2022-08-11T11:21:15.391Z,25.60
2022-08-11T11:24:11.932Z,25.50
2022-08-11T11:26:43.986Z,25.60
2022-08-11T11:29:27.931Z,25.60
2022-08-11T11:32:06.663Z,25.60
2022-08-11T11:34:47.936Z,25.80
2022-08-11T11:37:20.135Z,25.80
2022-08-11T11:39:46.948Z,25.90
2022-08-11T11:42:13.720Z,26.00
2022-08-11T11:44:42.059Z,26.10
2022-08-11T11:47:08.853Z,26.20
2022-08-11T11:49:39.432Z,26.30
2022-08-11T11:52:07.061Z,26.30
2022-08-11T11:54:34.030Z,26.30
2022-08-11T11:57:20.762Z,26.30
2022-08-11T12:00:07.842Z,26.30
2022-08-11T12:02:35.458Z,26.30
2022-08-11T12:05:02.352Z,26.30
2022-08-11T12:07:56.897Z,26.40
2022-08-11T12:10:35.401Z,26.40
2022-08-11T12:13:20.465Z,26.50
2022-08-11T12:16:32.299Z,26.60
2022-08-11T12:18:34.692Z,26.60
2022-08-11T12:21:01.801Z,26.70
2022-08-11T12:23:46.787Z,26.70
2022-08-11T12:26:34.916Z,26.80
2022-08-11T12:29:01.744Z,26.80
2022-08-11T12:31:32.364Z,26.90
2022-08-11T12:34:03.526Z,27.10
2022-08-11T12:36:33.615Z,27.20
2022-08-11T12:39:00.377Z,27.30
2022-08-11T12:41:57.002Z,27.40
2022-08-11T12:44:45.890Z,27.50
2022-08-11T12:47:15.501Z,27.60
2022-08-11T12:50:06.262Z,27.70
2022-08-11T12:52:50.529Z,27.70
2022-08-11T12:55:37.688Z,27.80
2022-08-11T12:58:17.144Z,27.90
2022-08-11T13:01:05.811Z,27.90
2022-08-11T13:03:57.681Z,27.90
2022-08-11T13:06:24.740Z,28.00
2022-08-11T13:08:51.541Z,28.10
2022-08-11T13:11:56.019Z,28.10
2022-08-11T13:14:23.466Z,28.10
2022-08-11T13:17:08.565Z,28.10
2022-08-11T13:19:35.681Z,28.20
2022-08-11T13:22:02.513Z,28.20
2022-08-11T13:24:29.266Z,28.20
2022-08-11T13:26:55.996Z,28.30
2022-08-11T13:29:24.783Z,28.10
2022-08-11T13:31:56.661Z,28.00
2022-08-11T13:34:24.193Z,27.90
2022-08-11T13:36:52.958Z,27.90
2022-08-11T13:39:24.523Z,27.80
2022-08-11T13:41:51.968Z,27.70
2022-08-11T13:44:24.818Z,27.60
2022-08-11T13:46:53.364Z,27.60
2022-08-11T13:49:20.315Z,27.70
2022-08-11T13:51:47.131Z,27.80
2022-08-11T13:54:21.565Z,27.80
2022-08-11T13:56:49.763Z,27.80
2022-08-11T13:59:23.959Z,27.80
2022-08-11T14:02:20.055Z,27.90
2022-08-11T14:05:00.564Z,28.00
2022-08-11T14:07:34.525Z,28.00
2022-08-11T14:10:01.418Z,28.00
2022-08-11T14:12:48.547Z,28.00
2022-08-11T14:15:21.152Z,28.10
2022-08-11T14:17:51.566Z,28.00
2022-08-11T14:20:38.430Z,27.90
2022-08-11T14:23:05.842Z,27.90
2022-08-11T14:26:00.364Z,28.10
2022-08-11T14:28:30.470Z,28.10
2022-08-11T14:31:01.770Z,28.10
2022-08-11T14:33:57.949Z,28.00
2022-08-11T14:36:15.756Z,27.90
2022-08-11T14:38:42.494Z,27.80
2022-08-11T14:41:27.683Z,27.80
2022-08-11T14:44:14.846Z,27.80
2022-08-11T14:47:01.104Z,27.60
2022-08-11T14:49:28.400Z,27.60
2022-08-11T14:51:57.096Z,27.50
2022-08-11T14:54:43.807Z,27.50
2022-08-11T14:57:10.569Z,27.60
2022-08-11T14:59:37.842Z,27.60
2022-08-11T15:02:23.441Z,27.70
2022-08-11T15:04:51.086Z,27.60
2022-08-11T15:07:17.871Z,27.50
2022-08-11T15:10:02.704Z,27.50
2022-08-11T15:12:33.128Z,27.50
2022-08-11T15:15:19.706Z,27.40
2022-08-11T15:17:48.013Z,27.30
2022-08-11T15:20:36.037Z,27.40
2022-08-11T15:23:21.783Z,27.40
2022-08-11T15:25:51.177Z,27.30
2022-08-11T15:28:36.318Z,27.20
2022-08-11T15:31:41.801Z,27.20
2022-08-11T15:34:36.419Z,27.20
2022-08-11T15:37:26.600Z,27.10
2022-08-11T15:40:36.412Z,27.20
2022-08-11T15:43:45.477Z,27.10
2022-08-11T15:46:17.862Z,27.10
2022-08-11T15:48:48.527Z,27.00
2022-08-11T15:51:29.363Z,27.10
2022-08-11T15:53:58.494Z,27.10
2022-08-11T15:56:26.507Z,27.10
2022-08-11T15:59:42.315Z,27.10
2022-08-11T16:02:30.946Z,27.10
2022-08-11T16:04:58.553Z,26.90
2022-08-11T16:07:27.395Z,26.70
2022-08-11T16:10:00.529Z,26.50
2022-08-11T16:12:31.998Z,26.40
2022-08-11T16:15:23.172Z,26.20
2022-08-11T16:17:57.932Z,26.20
2022-08-11T16:20:26.052Z,26.10
2022-08-11T16:23:00.491Z,26.10
2022-08-11T16:27:09.539Z,26.00
2022-08-11T16:28:16.898Z,26.00
2022-08-11T16:30:44.275Z,26.00
2022-08-11T16:33:48.547Z,25.90
2022-08-11T16:36:16.174Z,25.80
2022-08-11T16:38:43.045Z,25.80
2022-08-11T16:41:11.943Z,25.70
2022-08-11T16:43:59.668Z,25.70
2022-08-11T16:46:44.941Z,25.60
2022-08-11T16:49:21.068Z,25.40
2022-08-11T16:51:47.770Z,25.30
2022-08-11T16:54:14.497Z,25.30
2022-08-11T16:56:51.882Z,25.40
2022-08-11T16:59:20.556Z,25.40
2022-08-11T17:02:10.607Z,25.30
2022-08-11T17:05:16.053Z,25.40
2022-08-11T17:08:02.249Z,25.40
2022-08-11T17:11:03.156Z,25.20
2022-08-11T17:13:52.584Z,25.10
2022-08-11T17:16:24.206Z,25.00
2022-08-11T17:19:01.181Z,25.10
2022-08-11T17:21:30.206Z,25.10
2022-08-11T17:24:09.636Z,25.00
2022-08-11T17:26:59.101Z,24.80
2022-08-11T17:29:53.681Z,24.80
2022-08-11T17:32:56.206Z,24.90
2022-08-11T17:35:33.258Z,24.90
2022-08-11T17:38:19.716Z,24.90
2022-08-11T17:41:07.286Z,24.70
2022-08-11T17:43:52.524Z,24.50
2022-08-11T17:46:38.127Z,24.40
2022-08-11T17:49:07.691Z,24.30
2022-08-11T17:51:53.498Z,24.20
2022-08-11T17:54:40.064Z,24.20
2022-08-11T17:57:27.045Z,24.00
2022-08-11T17:59:54.149Z,24.00
2022-08-11T18:02:48.746Z,23.90
2022-08-11T18:05:18.198Z,23.90
2022-08-11T18:08:03.358Z,23.90
2022-08-11T18:10:50.132Z,23.90
2022-08-11T18:13:36.301Z,23.90
2022-08-11T18:16:21.860Z,23.80
2022-08-11T18:19:06.826Z,23.80
2022-08-11T18:22:08.234Z,23.80
2022-08-11T18:24:58.560Z,23.90
2022-08-11T18:27:45.853Z,23.80
2022-08-11T18:30:31.759Z,23.80
2022-08-11T18:33:44.966Z,23.80
2022-08-11T18:36:25.121Z,23.70
2022-08-11T18:39:10.206Z,23.60
2022-08-11T18:41:56.421Z,23.50
2022-08-11T18:44:44.673Z,23.40
2022-08-11T18:47:30.838Z,23.30
2022-08-11T18:50:32.532Z,23.20
2022-08-11T18:53:23.885Z,23.30
2022-08-11T18:56:08.981Z,23.20
2022-08-11T18:58:54.122Z,23.20
2022-08-11T19:01:43.023Z,23.10
2022-08-11T19:04:30.735Z,23.10
2022-08-11T19:07:20.155Z,23.00
2022-08-11T19:10:05.729Z,22.90
2022-08-11T19:12:58.799Z,22.80
2022-08-11T19:15:44.432Z,22.80
2022-08-11T19:18:32.497Z,22.80
2022-08-11T19:21:17.561Z,22.80
2022-08-11T19:24:03.757Z,22.80
2022-08-11T19:26:50.367Z,22.80
2022-08-11T19:30:07.246Z,22.70
2022-08-11T19:32:43.954Z,22.70
2022-08-11T19:35:29.131Z,22.70
2022-08-11T19:38:14.160Z,22.60
2022-08-11T19:40:59.123Z,22.60
2022-08-11T19:43:45.259Z,22.50
2022-08-11T19:46:30.414Z,22.50
2022-08-11T19:49:16.147Z,22.40
2022-08-11T19:52:02.257Z,22.30
2022-08-11T19:54:49.741Z,22.30
2022-08-11T19:57:39.655Z,22.30
2022-08-11T20:00:36.370Z,22.30
2022-08-11T20:03:24.739Z,22.30
2022-08-11T20:06:10.338Z,22.30
2022-08-11T20:08:58.657Z,22.30
2022-08-11T20:11:45.034Z,22.20
2022-08-11T20:14:30.010Z,22.10
2022-08-11T20:17:16.001Z,22.10
2022-08-11T20:22:51.430Z,22.00
2022-08-11T20:25:36.734Z,22.00
2022-08-11T20:28:22.956Z,22.00
2022-08-11T20:31:07.889Z,21.90
2022-08-11T20:33:53.125Z,21.80
2022-08-11T20:36:38.288Z,21.80
2022-08-11T20:39:23.471Z,21.70
2022-08-11T20:42:08.718Z,21.70
2022-08-11T20:44:55.304Z,21.60
2022-08-11T20:47:59.340Z,21.60
2022-08-11T20:50:46.077Z,21.60
2022-08-11T20:53:35.818Z,21.40
2022-08-11T20:56:28.474Z,21.30
2022-08-11T20:59:18.693Z,21.20
2022-08-11T21:02:05.490Z,21.10
2022-08-11T21:04:56.182Z,21.10
2022-08-11T21:07:42.079Z,21.00
2022-08-11T21:10:28.011Z,21.00
2022-08-11T21:13:26.384Z,20.90
2022-08-11T21:16:23.351Z,20.80
2022-08-11T21:19:12.557Z,20.70
2022-08-11T21:21:57.717Z,20.70
2022-08-11T21:24:47.070Z,20.60
2022-08-11T21:27:34.297Z,20.60
2022-08-11T21:30:20.134Z,20.50
2022-08-11T21:33:05.184Z,20.40
2022-08-11T21:35:50.672Z,20.30
2022-08-11T21:38:35.596Z,20.20
2022-08-11T21:41:20.815Z,20.20
2022-08-11T21:44:06.391Z,20.10
2022-08-11T21:46:57.162Z,20.00
2022-08-11T21:49:42.178Z,19.90
2022-08-11T21:52:27.361Z,19.80
2022-08-11T21:55:13.199Z,19.80
2022-08-11T21:57:58.907Z,19.70
2022-08-11T22:00:43.902Z,19.70
2022-08-11T22:03:29.121Z,19.70
2022-08-11T22:06:17.384Z,19.70
2022-08-11T22:09:02.626Z,19.60
2022-08-11T22:11:48.080Z,19.60
2022-08-11T22:14:53.181Z,19.60
2022-08-11T22:17:38.336Z,19.60
2022-08-11T22:20:25.586Z,19.60
2022-08-11T22:23:11.855Z,19.50
2022-08-11T22:26:03.840Z,19.50
2022-08-11T22:28:52.303Z,19.50
2022-08-11T22:31:37.473Z,19.50
2022-08-11T22:34:22.756Z,19.30
2022-08-11T22:37:07.745Z,19.30
2022-08-11T22:40:02.549Z,19.30
2022-08-11T22:42:49.970Z,19.30
2022-08-11T22:45:35.591Z,19.30
2022-08-11T22:48:22.703Z,19.30
2022-08-11T22:51:07.750Z,19.10
2022-08-11T22:53:57.557Z,19.00
2022-08-11T22:56:45.234Z,18.90
2022-08-11T22:59:30.441Z,18.80
2022-08-11T23:02:15.536Z,18.80
2022-08-11T23:05:00.584Z,18.90
2022-08-11T23:07:49.894Z,18.90
2022-08-11T23:10:37.242Z,18.90
2022-08-11T23:13:22.549Z,18.90
2022-08-11T23:16:08.312Z,18.90
2022-08-11T23:18:53.457Z,18.90
2022-08-11T23:21:39.496Z,18.80
2022-08-11T23:24:25.607Z,18.80
2022-08-11T23:27:10.750Z,18.80
2022-08-11T23:29:55.845Z,18.90
2022-08-11T23:32:41.107Z,18.90
2022-08-11T23:35:39.034Z,18.80
2022-08-11T23:38:25.942Z,18.80
2022-08-11T23:41:10.882Z,18.80
2022-08-11T23:43:56.117Z,18.80
2022-08-11T23:46:42.354Z,18.80
2022-08-11T23:49:27.602Z,18.70
2022-08-11T23:52:13.277Z,18.70
2022-08-11T23:54:58.446Z,18.70
2022-08-11T23:57:48.684Z,18.70
